createdAt,value
2018-07-22T00:01:09.113Z,57.40
2018-07-22T00:03:38.271Z,57.30
2018-07-22T00:06:06.732Z,57.20
2018-07-22T00:11:03.188Z,58.10
2018-07-22T00:13:31.573Z,58.00
2018-07-22T00:16:00.749Z,57.70
2018-07-22T00:18:29.105Z,57.60
2018-07-22T00:20:57.631Z,57.50
2018-07-22T00:23:25.990Z,57.50
2018-07-22T00:25:54.512Z,57.40
2018-07-22T00:28:22.912Z,57.50
2018-07-22T00:30:51.269Z,57.70
2018-07-22T00:35:47.863Z,57.80
2018-07-22T00:38:16.287Z,57.80
2018-07-22T00:40:44.635Z,57.80
2018-07-22T00:43:13.174Z,57.80
2018-07-22T00:45:41.563Z,57.90
2018-07-22T00:48:09.895Z,57.80
2018-07-22T00:50:38.264Z,58.10
2018-07-22T00:53:06.647Z,57.90
2018-07-22T00:55:35.008Z,58.00
2018-07-22T00:58:03.421Z,57.80
2018-07-22T01:03:00.159Z,58.30
2018-07-22T01:05:28.913Z,57.90
2018-07-22T01:07:57.307Z,58.00
2018-07-22T01:10:25.811Z,58.00
2018-07-22T01:12:54.325Z,58.00
2018-07-22T01:15:22.693Z,58.00
2018-07-22T01:20:19.142Z,58.50
2018-07-22T01:25:15.535Z,58.50
2018-07-22T01:27:43.907Z,58.50
2018-07-22T01:30:12.290Z,58.50
2018-07-22T01:32:40.894Z,58.50
2018-07-22T01:35:09.374Z,58.50
2018-07-22T01:37:37.806Z,58.50
2018-07-22T01:40:07.150Z,58.50
2018-07-22T01:42:35.562Z,58.50
2018-07-22T01:45:03.960Z,58.50
2018-07-22T01:47:32.356Z,58.50
2018-07-22T01:50:00.852Z,58.50
2018-07-22T01:52:29.206Z,59.20
2018-07-22T01:54:57.542Z,59.40
2018-07-22T01:57:26.576Z,59.60
2018-07-22T01:59:54.930Z,59.70
2018-07-22T02:02:23.379Z,60.50
2018-07-22T02:04:51.770Z,60.50
2018-07-22T02:07:20.703Z,60.30
2018-07-22T02:09:49.086Z,60.50
2018-07-22T02:12:17.469Z,60.70
2018-07-22T02:14:45.867Z,61.00
2018-07-22T02:17:14.269Z,60.90
2018-07-22T02:19:42.627Z,60.70
2018-07-22T02:22:10.992Z,61.00
2018-07-22T02:24:39.357Z,61.20
2018-07-22T02:27:07.938Z,61.20
2018-07-22T02:32:04.390Z,61.60
2018-07-22T02:34:32.744Z,61.60
2018-07-22T02:37:01.116Z,61.90
2018-07-22T02:39:29.472Z,61.70
2018-07-22T02:41:57.808Z,61.40
2018-07-22T02:44:26.160Z,61.00
2018-07-22T02:46:54.565Z,60.70
2018-07-22T02:51:50.986Z,60.30
2018-07-22T02:54:19.362Z,60.30
2018-07-22T02:56:47.768Z,60.30
2018-07-22T02:59:16.127Z,60.30
2018-07-22T03:04:12.778Z,60.00
2018-07-22T03:06:41.166Z,59.80
2018-07-22T03:09:10.348Z,59.50
2018-07-22T03:11:38.820Z,59.40
2018-07-22T03:14:07.318Z,59.30
2018-07-22T03:16:35.670Z,59.30
2018-07-22T03:19:04.062Z,59.20
2018-07-22T03:21:32.560Z,59.30
2018-07-22T03:24:00.931Z,59.40
2018-07-22T03:26:29.310Z,59.50
2018-07-22T03:28:57.765Z,59.60
2018-07-22T03:31:26.760Z,59.50
2018-07-22T03:33:55.084Z,59.60
2018-07-22T03:36:23.451Z,59.50
2018-07-22T03:38:52.424Z,59.60
2018-07-22T03:41:20.766Z,59.70
2018-07-22T03:43:49.120Z,59.90
2018-07-22T03:48:45.560Z,60.10
2018-07-22T03:53:42.002Z,60.50
2018-07-22T03:56:10.356Z,60.50
2018-07-22T03:58:38.694Z,60.70
2018-07-22T04:01:07.140Z,60.90
2018-07-22T04:13:28.263Z,63.00
2018-07-22T04:15:56.650Z,63.30
2018-07-22T04:18:25.148Z,63.30
2018-07-22T04:20:53.497Z,63.30
2018-07-22T04:23:21.864Z,63.30
2018-07-22T04:25:50.200Z,63.50
2018-07-22T04:28:18.554Z,63.40
2018-07-22T04:30:46.918Z,63.30
2018-07-22T04:33:15.272Z,62.90
2018-07-22T04:35:43.632Z,62.60
2018-07-22T04:38:12.051Z,62.10
2018-07-22T04:40:40.409Z,62.00
2018-07-22T04:43:08.742Z,62.30
2018-07-22T04:45:37.173Z,62.30
2018-07-22T04:48:05.632Z,62.30
2018-07-22T04:50:40.749Z,62.20
2018-07-22T04:53:09.070Z,62.00
2018-07-22T04:55:37.713Z,62.00
2018-07-22T04:58:06.405Z,61.90
2018-07-22T05:00:34.817Z,61.50
2018-07-22T05:03:03.797Z,61.50
2018-07-22T05:05:32.873Z,61.20
2018-07-22T05:08:01.187Z,60.90
2018-07-22T05:10:29.629Z,61.10
2018-07-22T05:12:57.979Z,61.20
2018-07-22T05:15:26.467Z,61.10
2018-07-22T05:17:54.854Z,61.20
2018-07-22T05:20:23.206Z,61.00
2018-07-22T05:22:51.587Z,60.70
2018-07-22T05:25:20.019Z,60.70
2018-07-22T05:30:17.242Z,60.70
2018-07-22T05:32:45.612Z,60.50
2018-07-22T05:35:13.993Z,60.80
2018-07-22T05:37:42.343Z,60.80
2018-07-22T05:40:10.735Z,60.60
2018-07-22T05:42:39.165Z,60.60
2018-07-22T05:45:07.652Z,60.50
2018-07-22T05:50:05.339Z,60.00
2018-07-22T05:55:01.948Z,59.20
2018-07-22T05:57:30.433Z,59.40
2018-07-22T05:59:58.794Z,59.40
2018-07-22T06:02:27.227Z,59.50
2018-07-22T06:07:23.875Z,59.10
2018-07-22T06:09:52.257Z,59.20
2018-07-22T06:12:21.291Z,58.70
2018-07-22T06:14:49.649Z,58.40
2018-07-22T06:17:18.041Z,58.10
2018-07-22T06:19:47.127Z,57.80
2018-07-22T06:24:43.659Z,58.90
2018-07-22T06:27:12.074Z,59.00
2018-07-22T06:29:40.458Z,58.90
2018-07-22T06:32:08.907Z,58.30
2018-07-22T06:34:37.263Z,57.60
2018-07-22T06:37:05.657Z,56.70
2018-07-22T06:39:34.923Z,56.90
2018-07-22T06:42:03.269Z,57.20
2018-07-22T06:44:31.814Z,57.40
2018-07-22T06:47:00.198Z,57.60
2018-07-22T06:49:28.581Z,57.00
2018-07-22T06:54:25.045Z,55.90
2018-07-22T06:56:53.541Z,55.80
2018-07-22T06:59:28.701Z,54.90
2018-07-22T07:01:57.077Z,55.20
2018-07-22T07:04:25.513Z,55.70
2018-07-22T07:06:53.889Z,55.00
2018-07-22T07:09:22.243Z,54.50
2018-07-22T07:11:50.784Z,55.60
2018-07-22T07:14:19.263Z,56.00
2018-07-22T07:16:48.624Z,55.70
2018-07-22T07:19:17.023Z,56.10
2018-07-22T07:21:45.391Z,55.60
2018-07-22T07:24:13.819Z,55.20
2018-07-22T07:26:42.201Z,55.30
2018-07-22T07:29:10.509Z,54.80
2018-07-22T07:34:07.411Z,54.50
2018-07-22T07:36:35.835Z,54.90
2018-07-22T07:39:07.667Z,54.40
2018-07-22T07:41:36.140Z,54.00
2018-07-22T07:44:04.546Z,53.80
2018-07-22T07:46:33.159Z,52.60
2018-07-22T07:49:01.501Z,51.70
2018-07-22T07:51:29.873Z,51.80
2018-07-22T07:53:58.250Z,51.70
2018-07-22T07:56:26.627Z,51.80
2018-07-22T07:58:55.007Z,52.00
2018-07-22T08:01:23.437Z,52.00
2018-07-22T08:03:51.940Z,52.00
2018-07-22T08:08:48.570Z,51.60
2018-07-22T08:11:17.741Z,51.20
2018-07-22T08:13:46.217Z,51.20
2018-07-22T08:16:14.659Z,50.40
2018-07-22T08:18:43.170Z,50.70
2018-07-22T08:21:11.571Z,49.90
2018-07-22T08:23:39.931Z,50.10
2018-07-22T08:26:08.397Z,49.80
2018-07-22T08:29:46.348Z,49.60
2018-07-22T08:32:14.877Z,49.20
2018-07-22T08:34:43.228Z,48.90
2018-07-22T08:37:11.651Z,48.60
2018-07-22T08:39:40.039Z,48.80
2018-07-22T08:42:08.523Z,49.20
2018-07-22T08:44:36.925Z,47.80
2018-07-22T08:47:05.462Z,48.40
2018-07-22T08:49:33.843Z,48.60
2018-07-22T08:52:02.209Z,48.10
2018-07-22T08:54:30.734Z,48.50
2018-07-22T08:56:59.155Z,48.10
2018-07-22T09:01:55.643Z,48.40
2018-07-22T09:04:24.041Z,48.50
2018-07-22T09:06:52.460Z,47.90
2018-07-22T09:09:20.883Z,48.00
2018-07-22T09:11:49.375Z,47.50
2018-07-22T09:14:17.846Z,47.30
2018-07-22T09:16:46.425Z,46.30
2018-07-22T09:19:14.828Z,46.10
2018-07-22T09:21:43.356Z,46.50
2018-07-22T09:24:11.739Z,44.30
2018-07-22T09:26:40.098Z,44.40
2018-07-22T09:29:08.585Z,44.80
2018-07-22T09:31:36.985Z,43.30
2018-07-22T09:34:05.335Z,44.10
2018-07-22T09:36:33.763Z,43.60
2018-07-22T09:39:02.120Z,43.40
2018-07-22T09:41:30.482Z,42.60
2018-07-22T09:43:58.871Z,41.90
2018-07-22T09:46:27.222Z,41.50
2018-07-22T09:49:02.562Z,43.20
2018-07-22T09:51:31.001Z,44.30
2018-07-22T09:53:59.385Z,42.50
2018-07-22T09:56:27.739Z,41.40
2018-07-22T09:58:56.173Z,41.30
2018-07-22T10:01:24.649Z,42.40
2018-07-22T10:03:53.037Z,42.00
2018-07-22T10:06:21.406Z,41.70
2018-07-22T10:08:49.808Z,41.80
2018-07-22T10:11:18.237Z,42.80
2018-07-22T10:16:14.828Z,41.00
2018-07-22T10:18:43.186Z,41.10
2018-07-22T10:21:11.636Z,41.80
2018-07-22T10:23:40.042Z,40.60
2018-07-22T10:26:08.432Z,40.40
2018-07-22T10:28:36.877Z,39.60
2018-07-22T10:31:05.472Z,38.80
2018-07-22T10:33:33.908Z,38.80
2018-07-22T10:40:58.631Z,39.50
2018-07-22T10:43:27.003Z,39.10
2018-07-22T10:45:55.370Z,38.00
2018-07-22T10:48:23.780Z,37.20
2018-07-22T10:50:52.160Z,36.80
2018-07-22T10:53:20.536Z,38.90
2018-07-22T10:55:48.994Z,41.30
2018-07-22T10:58:17.359Z,39.80
2018-07-22T11:00:45.730Z,39.80
2018-07-22T11:03:14.171Z,40.80
2018-07-22T11:05:42.510Z,40.80
2018-07-22T11:08:10.908Z,39.40
2018-07-22T11:13:07.884Z,39.00
2018-07-22T11:15:36.369Z,38.00
2018-07-22T11:20:32.955Z,39.10
2018-07-22T11:23:01.357Z,38.40
2018-07-22T11:25:29.754Z,37.50
2018-07-22T11:27:58.135Z,37.80
2018-07-22T11:30:26.521Z,37.60
2018-07-22T11:32:55.070Z,37.40
2018-07-22T11:35:23.439Z,36.80
2018-07-22T11:37:51.832Z,36.80
2018-07-22T11:40:20.209Z,36.80
2018-07-22T11:42:48.628Z,35.70
2018-07-22T11:45:16.975Z,36.10
2018-07-22T11:47:45.347Z,35.30
2018-07-22T11:50:13.813Z,35.50
2018-07-22T11:52:42.387Z,35.20
2018-07-22T11:55:10.875Z,33.90
2018-07-22T11:57:39.265Z,35.50
2018-07-22T12:00:07.713Z,33.90
2018-07-22T12:02:36.133Z,33.70
2018-07-22T12:05:04.523Z,35.00
2018-07-22T12:07:32.989Z,34.00
2018-07-22T12:10:01.293Z,36.30
2018-07-22T12:12:29.695Z,33.50
2018-07-22T12:14:58.093Z,32.30
2018-07-22T12:17:26.445Z,32.00
2018-07-22T12:22:22.908Z,32.90
2018-07-22T12:24:51.314Z,32.30
2018-07-22T12:27:19.677Z,30.90
2018-07-22T12:29:48.025Z,31.10
2018-07-22T12:34:45.292Z,30.70
2018-07-22T12:37:13.655Z,31.70
2018-07-22T12:39:42.041Z,32.10
2018-07-22T12:42:10.472Z,31.00
2018-07-22T12:44:38.816Z,31.40
2018-07-22T12:47:07.213Z,30.40
2018-07-22T12:49:35.668Z,31.00
2018-07-22T12:54:32.211Z,32.00
2018-07-22T12:57:00.601Z,32.50
2018-07-22T12:59:28.960Z,30.70
2018-07-22T13:01:57.290Z,29.70
2018-07-22T13:04:25.720Z,29.50
2018-07-22T13:06:54.222Z,29.10
2018-07-22T13:09:22.595Z,29.80
2018-07-22T13:11:50.991Z,30.00
2018-07-22T13:14:19.499Z,30.40
2018-07-22T13:16:48.431Z,29.50
2018-07-22T13:19:16.783Z,29.40
2018-07-22T13:21:45.191Z,29.30
2018-07-22T13:24:13.560Z,30.10
2018-07-22T13:26:41.947Z,30.10
2018-07-22T13:29:10.319Z,29.20
2018-07-22T13:31:45.443Z,29.50
2018-07-22T13:34:13.887Z,28.70
2018-07-22T13:36:42.825Z,27.50
2018-07-22T13:39:12.003Z,27.10
2018-07-22T13:41:41.006Z,27.50
2018-07-22T13:44:09.475Z,28.20
2018-07-22T13:46:38.260Z,28.00
2018-07-22T13:49:07.151Z,27.00
2018-07-22T13:51:35.951Z,27.90
2018-07-22T13:54:04.703Z,29.40
2018-07-22T13:56:33.078Z,29.10
2018-07-22T13:59:01.437Z,29.80
2018-07-22T14:01:29.892Z,29.30
2018-07-22T14:06:26.563Z,29.60
2018-07-22T14:08:54.947Z,29.90
2018-07-22T14:11:23.405Z,28.30
2018-07-22T14:13:51.818Z,29.10
2018-07-22T14:16:20.239Z,28.60
2018-07-22T14:18:48.720Z,27.50
2018-07-22T14:21:17.171Z,27.60
2018-07-22T14:23:45.546Z,27.10
2018-07-22T14:26:14.426Z,27.20
2018-07-22T14:33:39.578Z,26.80
2018-07-22T14:38:36.318Z,27.10
2018-07-22T14:41:04.929Z,26.90
2018-07-22T14:43:33.172Z,27.10
2018-07-22T14:46:01.522Z,27.00
2018-07-22T14:48:30.026Z,26.90
2018-07-22T14:50:58.495Z,26.80
2018-07-22T14:53:26.888Z,26.90
2018-07-22T14:55:55.433Z,26.80
2018-07-22T14:58:23.998Z,26.40
2018-07-22T15:00:52.447Z,26.90
2018-07-22T15:03:20.884Z,26.40
2018-07-22T15:05:50.291Z,26.50
2018-07-22T15:08:18.703Z,26.80
2018-07-22T15:10:47.077Z,26.40
2018-07-22T15:13:15.456Z,27.00
2018-07-22T15:15:43.804Z,26.50
2018-07-22T15:18:12.190Z,25.50
2018-07-22T15:20:40.701Z,24.90
2018-07-22T15:23:09.102Z,25.00
2018-07-22T15:25:37.460Z,24.70
2018-07-22T15:28:05.839Z,24.40
2018-07-22T15:30:34.210Z,24.80
2018-07-22T15:33:02.558Z,23.80
2018-07-22T15:35:30.909Z,23.30
2018-07-22T15:37:59.408Z,24.10
2018-07-22T15:40:27.772Z,23.90
2018-07-22T15:42:56.256Z,24.30
2018-07-22T15:45:24.662Z,24.60
2018-07-22T15:47:53.094Z,24.30
2018-07-22T15:50:25.340Z,24.80
2018-07-22T15:52:53.823Z,24.00
2018-07-22T15:55:22.581Z,24.60
2018-07-22T15:57:51.560Z,23.50
2018-07-22T16:00:20.493Z,23.80
2018-07-22T16:02:49.102Z,23.70
2018-07-22T16:05:17.682Z,23.60
2018-07-22T16:07:46.537Z,23.80
2018-07-22T16:10:15.077Z,23.60
2018-07-22T16:12:43.675Z,24.20
2018-07-22T16:15:12.149Z,24.70
2018-07-22T16:17:40.541Z,23.90
2018-07-22T16:20:09.042Z,23.60
2018-07-22T16:22:38.532Z,24.00
2018-07-22T16:25:06.931Z,24.10
2018-07-22T16:27:35.448Z,24.70
2018-07-22T16:30:03.972Z,24.10
2018-07-22T16:32:32.991Z,24.10
2018-07-22T16:35:01.424Z,24.50
2018-07-22T16:37:30.419Z,24.10
2018-07-22T16:39:58.821Z,23.20
2018-07-22T16:42:27.190Z,23.80
2018-07-22T16:44:55.629Z,24.00
2018-07-22T16:49:56.408Z,24.90
2018-07-22T16:52:24.836Z,24.80
2018-07-22T16:54:53.263Z,25.30
2018-07-22T16:57:21.684Z,25.40
2018-07-22T16:59:50.076Z,26.20
2018-07-22T17:02:18.604Z,26.20
2018-07-22T17:04:46.966Z,26.10
2018-07-22T17:07:15.331Z,26.00
2018-07-22T17:12:12.427Z,26.60
2018-07-22T17:17:33.308Z,27.40
2018-07-22T17:20:01.734Z,27.30
2018-07-22T17:22:30.220Z,28.50
2018-07-22T17:24:58.569Z,28.20
2018-07-22T17:27:27.618Z,29.10
2018-07-22T17:29:56.046Z,28.70
2018-07-22T17:32:24.664Z,27.90
2018-07-22T17:34:53.128Z,28.40
2018-07-22T17:37:21.491Z,29.10
2018-07-22T17:39:49.940Z,29.60
2018-07-22T17:42:18.335Z,29.60
2018-07-22T17:44:47.461Z,29.50
2018-07-22T17:47:15.853Z,29.60
2018-07-22T17:49:44.232Z,29.60
2018-07-22T17:52:12.662Z,30.00
2018-07-22T17:57:09.378Z,31.60
2018-07-22T18:04:34.120Z,31.60
2018-07-22T18:07:02.504Z,32.20
2018-07-22T18:09:30.962Z,32.30
2018-07-22T18:11:59.364Z,32.70
2018-07-22T18:14:27.808Z,33.00
2018-07-22T18:16:56.223Z,33.50
2018-07-22T18:19:24.611Z,33.20
2018-07-22T18:21:53.209Z,33.70
2018-07-22T18:26:49.615Z,34.40
2018-07-22T18:29:21.657Z,34.70
2018-07-22T18:31:50.091Z,35.30
2018-07-22T18:36:46.602Z,35.10
2018-07-22T18:39:15.050Z,35.10
2018-07-22T18:41:43.674Z,35.00
2018-07-22T18:44:12.336Z,35.00
2018-07-22T18:46:40.878Z,36.20
2018-07-22T18:49:09.351Z,36.60
2018-07-22T18:51:37.785Z,37.00
2018-07-22T18:54:06.573Z,37.10
2018-07-22T18:56:35.137Z,37.50
2018-07-22T18:59:03.622Z,37.90
2018-07-22T19:01:32.869Z,38.50
2018-07-22T19:04:01.575Z,38.70
2018-07-22T19:06:30.274Z,38.90
2018-07-22T19:08:59.112Z,39.10
2018-07-22T19:13:55.973Z,39.00
2018-07-22T19:16:24.361Z,39.10
2018-07-22T19:18:52.808Z,38.80
2018-07-22T19:21:21.209Z,38.50
2018-07-22T19:23:49.644Z,38.50
2018-07-22T19:26:18.082Z,38.20
2018-07-22T19:28:46.516Z,38.40
2018-07-22T19:31:15.002Z,38.20
2018-07-22T19:33:43.445Z,38.50
2018-07-22T19:36:11.930Z,38.20
2018-07-22T19:41:08.580Z,38.80
2018-07-22T19:43:37.009Z,39.70
2018-07-22T19:46:05.715Z,40.10
2018-07-22T19:48:34.148Z,40.30
2018-07-22T19:51:02.602Z,40.80
2018-07-22T19:53:31.068Z,41.50
2018-07-22T19:55:59.428Z,41.70
2018-07-22T19:58:27.832Z,41.90
2018-07-22T20:00:56.299Z,42.30
2018-07-22T20:03:24.722Z,42.90
2018-07-22T20:08:21.273Z,43.20
2018-07-22T20:10:49.730Z,43.40
2018-07-22T20:13:18.187Z,43.60
2018-07-22T20:15:46.607Z,43.80
2018-07-22T20:20:43.124Z,43.70
2018-07-22T20:23:11.558Z,43.60
2018-07-22T20:25:39.977Z,43.50
2018-07-22T20:28:09.113Z,43.50
2018-07-22T20:33:06.508Z,44.30
2018-07-22T20:38:03.023Z,44.60
2018-07-22T20:40:31.387Z,44.50
2018-07-22T20:42:59.779Z,44.60
2018-07-22T20:45:28.212Z,44.90
2018-07-22T20:47:56.615Z,44.80
2018-07-22T20:50:24.996Z,44.70
2018-07-22T20:52:53.408Z,44.80
2018-07-22T20:55:21.834Z,44.80
2018-07-22T20:57:50.256Z,45.30
2018-07-22T21:00:18.708Z,45.20
2018-07-22T21:02:47.136Z,45.30
2018-07-22T21:05:15.591Z,45.70
2018-07-22T21:07:43.982Z,46.00
2018-07-22T21:10:12.364Z,46.30
2018-07-22T21:12:53.515Z,46.60
2018-07-22T21:15:22.019Z,46.80
2018-07-22T21:17:51.500Z,46.90
2018-07-22T21:20:20.892Z,46.90
2018-07-22T21:22:49.311Z,47.00
2018-07-22T21:25:18.068Z,47.10
2018-07-22T21:27:46.550Z,47.40
2018-07-22T21:30:15.439Z,47.90
2018-07-22T21:32:43.850Z,48.20
2018-07-22T21:35:12.343Z,48.20
2018-07-22T21:37:40.775Z,48.40
2018-07-22T21:40:09.151Z,48.40
2018-07-22T21:42:37.541Z,48.60
2018-07-22T21:45:06.754Z,48.70
2018-07-22T21:47:35.449Z,48.90
2018-07-22T21:50:04.483Z,49.00
2018-07-22T21:52:32.995Z,49.20
2018-07-22T21:55:01.396Z,49.10
2018-07-22T21:57:29.742Z,49.20
2018-07-22T21:59:58.131Z,49.30
2018-07-22T22:02:32.446Z,49.40
2018-07-22T22:05:02.077Z,49.70
2018-07-22T22:07:30.812Z,50.10
2018-07-22T22:09:59.639Z,50.40
2018-07-22T22:14:56.048Z,50.60
2018-07-22T22:17:24.435Z,50.60
2018-07-22T22:19:53.379Z,50.50
2018-07-22T22:22:21.817Z,50.60
2018-07-22T22:24:50.289Z,51.00
2018-07-22T22:27:18.603Z,51.30
2018-07-22T22:29:47.645Z,51.40
2018-07-22T22:32:16.025Z,51.30
2018-07-22T22:37:12.485Z,51.20
2018-07-22T22:42:08.969Z,51.10
2018-07-22T22:44:37.331Z,51.00
2018-07-22T22:47:05.845Z,51.40
2018-07-22T22:49:34.981Z,51.70
2018-07-22T22:54:31.454Z,52.50
2018-07-22T22:56:59.856Z,52.70
2018-07-22T22:59:28.359Z,53.00
2018-07-22T23:01:56.759Z,53.20
2018-07-22T23:04:25.172Z,53.30
2018-07-22T23:07:00.379Z,53.40
2018-07-22T23:09:28.784Z,53.50
2018-07-22T23:14:31.825Z,53.60
2018-07-22T23:17:00.209Z,53.60
2018-07-22T23:19:28.675Z,53.70
2018-07-22T23:21:57.165Z,53.80
2018-07-22T23:24:25.608Z,54.20
2018-07-22T23:26:53.996Z,54.70
2018-07-22T23:29:22.374Z,54.50
2018-07-22T23:31:50.801Z,54.90
2018-07-22T23:34:19.213Z,55.10
2018-07-22T23:36:47.632Z,55.20
2018-07-22T23:39:16.001Z,56.00
2018-07-22T23:41:44.375Z,55.60
2018-07-22T23:44:12.760Z,55.40
2018-07-22T23:46:41.134Z,55.30
2018-07-22T23:49:09.566Z,55.20
2018-07-22T23:51:37.921Z,55.70
2018-07-22T23:54:06.357Z,57.30
2018-07-22T23:56:34.750Z,58.20
2018-07-22T23:59:03.198Z,58.40
